Eden, North Carolina
Current Conditions -  °F | °C
As of 12:15 AM on Sunday 26 Oct 2014 (Local Time) from KSIF Reporting Station
Clear Clear  
Wind Chill: 55°   Ceiling: Unl
Heat Index: 55°   Visibility: 10mi
Dew Point: 45°   Wind: 3mph
Humidity: 68%   Direction: 210°SSW
Pressure: 29.88"   Gusts: NA
Location:  36.5°N, 79.74°W
Report Text: KSIF 260415Z AUTO 21003KT 10SM CLR 13/07 A2988 RMK AO2 T01290072
Loading
Personal Weather Stations






























Interactive Weather Map New forecast layout! Learn more

10-Day Weather Forecast

Advertisements
Track Severe Weather on mobile